Comodoro Rivadavia, Argentina

9:08 AM ART en Noviembre 24, 2014 (GMT -0300)
GEN. Enrique Mosconi International | Change Station
CLOSE
Current Station
Aeropuerto
Location: Comodoro Rivadavia,
Altura: 151 ft
Estaciones meteorológicas cercanas

Alt 151 ft 45.78 °S, 67.50 °W | Updated 8 minutes ago

Clear
Despejado
59 ° F
Sensación térmica 59 ° F
N
13
Viento Variable Viento desde Oeste

Hoy
Alta -- | Baja -- ° F
--% Posibilidad de precipitaciones
Ayer
Alta -- | Baja -- ° F
Precip. -- pul
5:40 AM 8:53 PM
Creciente, 5% visible
Presión 29.80 pul
Visibilidad -9999.0 Millas
Nubes
Punto de rocío 36 ° F
Humedad 42%
Precipitaciones 0.00 pul
Espesor de la nieve No disponible.
UV No disponible.
Polen No disponible.
Calidad del aire No disponible.
Flu Activity No disponible.
METAR SAVC 241200Z 27011KT CAVOK 15/02 Q1009

More Conditions Fewer Conditions

Presión 29.80 pul
Visibilidad -9999.0 Millas
Nubes
Punto de rocío 36 ° F
Humedad 42%
Precipitaciones 0.00 pul
Espesor de la nieve No disponible.
UV No disponible.
Polen No disponible.
Calidad del aire No disponible.
Flu Activity No disponible.
METAR SAVC 241200Z 27011KT CAVOK 15/02 Q1009

More Conditions Fewer Conditions

10-Day Weather Forecast

Almanac

Astronomía

Nov. 24, 2014 Salida Puesta
Hora real
Crepúsculo civil
Crepúsculo náutico
Crepúsculo astronómico
Luna
Horas de luz
Horas de luz
Tomorrow will be .
, % of the Moon is Illuminated

Extremos de hoy

Máximos del país Bajas del país

Community

WunderPhotos

Upload Photos

1,773,313 ¡fotos cargadas!

WunderBlogs® & News

Nearby

Calidad del aire

  Calidad del aire Índice AQ Contaminante
Not available.

Grosos de nieve

Estación Profundido Altura

Actividad de terremotos

Ciudad Distance Mag. Tiempo y dato
Magnitud mínima muestra es 2,5.

Temperaturas de aguas costeras

Lugar Temperatura

Estaciones meteorológicas cercanas